Flight Track Log - Related Links

Times and Time Zones

All times are in EDT time to prevent confusion due to time zone crossing. See the UPS1055 flight status page for this flight to view local times or setup timezone preferences in your user account.

Time Position Orientation Groundspeed Altitude Reporting Facility
EDT Latitude Longitude Course Direction KTS MPH feet Rate Location/Type
Tue 10:51:01 PM 42.9197 -71.4260 155° Southeast 142 163 1,100  Level FlightAware ADS-B (KASH)
Tue 10:51:16 PM 42.9099 -71.4241 187° South 148 170 2,100 2,483 Climbing FlightAware ADS-B (KASH)
Tue 10:51:30 PM 42.9004 -71.4293 215° Southwest 159 183 2,300 414 Climbing FlightAware ADS-B (KASH)
Tue 10:51:45 PM 42.8933 -71.4409 243° Southwest 174 200 2,300 800 Level FlightAware ADS-B (KASH)
Tue 10:52:00 PM 42.8917 -71.4578 276° West 192 221 2,700 2,129 Climbing FlightAware ADS-B (KASH)
Tue 10:52:16 PM 42.8973 -71.4765 298° West 205 236 3,400 3,067 Climbing FlightAware ADS-B (KASH)
Tue 10:52:45 PM 42.9147 -71.5097 303° West 216 249 5,000 3,000 Climbing FlightAware ADS-B (KASH)
Tue 10:53:00 PM 42.9209 -71.5275 287° West 228 262 5,600 2,129 Climbing FlightAware ADS-B (KASH)
Tue 10:53:16 PM 42.9232 -71.5524 271° West 254 292 6,100 2,323 Climbing FlightAware ADS-B (KASH)
Tue 10:53:31 PM 42.9241 -71.5774 271° West 263 303 6,800 3,086 Climbing FlightAware ADS-B (KASH)
Tue 10:53:51 PM 42.9254 -71.6110 273° West 267 307 7,900 3,136 Climbing FlightAware ADS-B
Tue 10:54:15 PM 42.9273 -71.6517 274° West 279 321 9,100 2,550 Climbing FlightAware ADS-B (KASH)
Tue 10:54:31 PM 42.9288 -71.6805 274° West 280 322 9,600 1,932 Climbing FlightAware ADS-B (KASH)
Tue 10:55:14 PM 42.9329 -71.7607 274° West 319 367 11,000 2,027 Climbing FlightAware ADS-B (KASH)
Tue 10:55:45 PM 42.9360 -71.8277 274° West 349 402 12,100 2,919 Climbing FlightAware ADS-B (KASH)
Tue 10:56:28 PM 42.9402 -71.9230 273° West 359 413 14,600 3,280 Climbing FlightAware ADS-B (KASH)
Tue 10:57:00 PM 42.9433 -71.9950 273° West 370 426 16,200 2,961 Climbing FlightAware ADS-B (KASH)
Tue 10:57:45 PM 42.9479 -72.1020 273° West 382 440 18,400 3,040 Climbing FlightAware ADS-B (KASH)
Tue 10:58:15 PM 42.9509 -72.1744 273° West 385 443 20,000 2,735 Climbing FlightAware ADS-B (KASH)
Tue 10:58:53 PM 42.9548 -72.2673 272° West 395 455 21,500 2,435 Climbing FlightAware ADS-B (KASH)
Tue 10:59:24 PM 42.9563 -72.3451 265° West 403 464 22,800 2,273 Climbing FlightAware ADS-B (KASH)
Tue 10:59:59 PM 42.9419 -72.4324 251° West 415 478 24,000 2,087 Climbing FlightAware ADS-B (KASH)
Tue 11:00:33 PM 42.9178 -72.5170 250° West 426 490 25,200 2,118 Climbing FlightAware ADS-B (KASH)
Tue 11:01:07 PM 42.8928 -72.6035 250° West 429 494 26,400 2,206 Climbing FlightAware ADS-B (KASH)
Tue 11:01:41 PM 42.8680 -72.6889 250° West 425 489 27,700 1,185 Climbing FlightAware ADS-B (KASH)
Tue 11:02:28 PM 42.8340 -72.8055 249° West 415 478 28,000 155 Climbing FlightAware ADS-B (KASH)
Tue 11:03:37 PM 42.7947 -72.9408 249° West 420 483 28,000  Level Boston Center
Tue 11:04:37 PM 42.7494 -73.0936 248° West 420 483 28,000  Level Boston Center
Tue 11:05:39 PM 42.7053 -73.2431 248° West 425 489 28,000  Level Boston Center
Tue 11:06:40 PM 42.6603 -73.3925 248° West 426 490 28,000  Level Boston Center
Tue 11:07:40 PM 42.6156 -73.5431 248° West 428 493 28,000 -99 Level Boston Center
Tue 11:08:41 PM 42.5711 -73.6917 248° West 428 493 27,800 -541 Descending Boston Center
Tue 11:09:42 PM 42.5258 -73.8400 248° West 428 493 26,900 -271 Descending Boston Center
Tue 11:16:04 PM 42.1702 -74.7679 234° Southwest 410 472 25,800 -472 Descending FlightAware ADS-B (KWWD)
Tue 11:16:54 PM 42.1172 -74.8639 234° Southwest 423 487 23,500 -2,089 Descending New York Center
Tue 11:17:56 PM 42.0439 -74.9933 233° Southwest 428 493 21,900 -1,895 Descending New York Center
Tue 11:18:48 PM 41.9867 -75.0931 232° Southwest 434 499 19,900 -1,554 Descending Boston Center
Tue 11:19:48 PM 41.8931 -75.1906 218° Southwest 433 498 19,000 -694 Descending Boston Center
Tue 11:20:49 PM 41.7939 -75.2694 211° Southwest 419 482 18,500 -1,350 Descending Boston Center
Tue 11:21:48 PM 41.6975 -75.3472 211° Southwest 408 470 16,300 -2,311 Descending Boston Center
Tue 11:22:51 PM 41.6067 -75.4222 212° Southwest 388 447 13,800 -649 Descending Boston Center
Tue 11:28:53 PM 41.0050 -75.6875 178° South 373 429 11,700 -327 Descending FlightAware ADS-B (KWWD)
Tue 11:29:16 PM 40.9638 -75.6801 167° South 377 434 11,700  Level FlightAware ADS-B (KWWD)
Tue 11:29:56 PM 40.8994 -75.6511 159° South 360 414 11,700  Level FlightAware ADS-B (KWWD)
Tue 11:30:37 PM 40.8338 -75.6184 159° South 361 415 11,700  Level FlightAware ADS-B (KWWD)
Tue 11:31:07 PM 40.7849 -75.5945 159° South 361 415 11,700 -429 Level FlightAware ADS-B (KWWD)
Tue 11:35:17 PM 40.4171 -75.4135 160° South 362 417 9,700 -512 Descending FlightAware ADS-B (KWWD)
Tue 11:35:48 PM 40.3776 -75.3902 156° South 295 339 9,300 -1,100 Descending FlightAware ADS-B (KPHL)
Tue 11:36:17 PM 40.3421 -75.3692 156° South 294 338 8,600 -1,435 Descending FlightAware ADS-B (KPHL)
Tue 11:36:34 PM 40.3213 -75.3569 156° South 293 337 8,200 -1,304 Descending FlightAware ADS-B (KPHL)
Tue 11:37:03 PM 40.2856 -75.3365 161° South 287 330 7,600 -1,227 Descending FlightAware ADS-B (KPHL)
Tue 11:37:18 PM 40.2655 -75.3318 177° South 281 323 7,300 -1,161 Descending FlightAware ADS-B (KPHL)
Tue 11:37:34 PM 40.2499 -75.3338 195° South 275 316 7,000 -1,161 Descending FlightAware ADS-B (KPHL)
Tue 11:37:49 PM 40.2284 -75.3427 199° South 271 312 6,700 -1,000 Descending FlightAware ADS-B (KPHL)
Tue 11:38:04 PM 40.2103 -75.3510 200° South 266 306 6,500 -1,000 Descending FlightAware ADS-B (KPHL)
Tue 11:38:19 PM 40.1938 -75.3587 200° South 264 304 6,200 -1,273 Descending FlightAware ADS-B (KPHL)
Tue 11:38:37 PM 40.1715 -75.3693 200° South 261 300 5,800 -769 Descending FlightAware ADS-B (KWWD)
Tue 11:38:58 PM 40.1486 -75.3803 200° South 255 293 5,700 -150 Descending FlightAware ADS-B (KWWD)
Tue 11:39:17 PM 40.1268 -75.3905 200° South 254 292 5,700  Level FlightAware ADS-B (KWWD)
Tue 11:39:32 PM 40.1105 -75.3980 199° South 252 290 5,700  Level FlightAware ADS-B (KPHL)
Tue 11:39:49 PM 40.0961 -75.4048 200° South 252 290 5,700  Level FlightAware ADS-B (KPHL)
Tue 11:40:02 PM 40.0779 -75.4133 195° South 246 283 5,700  Level FlightAware ADS-B (KPHL)
Tue 11:40:20 PM 40.0581 -75.4153 174° South 238 274 5,700  Level FlightAware ADS-B (KPHL)
Tue 11:40:35 PM 40.0419 -75.4112 167° South 240 276 5,700  Level FlightAware ADS-B (KPHL)
Tue 11:40:51 PM 40.0243 -75.4060 166° South 239 275 5,700  Level FlightAware ADS-B (EGBO)
Tue 11:41:06 PM 40.0074 -75.4011 167° South 238 274 5,700  Level FlightAware ADS-B (KPHL)
Tue 11:41:27 PM 39.9860 -75.3949 166° South 239 275 5,700  Level FlightAware ADS-B (EGBO)
Tue 11:41:47 PM 39.9630 -75.3883 170° South 231 266 5,700  Level FlightAware ADS-B (KWWD)
Tue 11:41:50 PM 39.9594 -75.3880 176° South 238 274 5,700  Level FlightAware ADS-B (KPHL)
Tue 11:42:03 PM 39.9453 -75.3914 203° Southwest 233 268 5,700  Level FlightAware ADS-B (KPHL)
Tue 11:42:08 PM 39.9403 -75.3948 209° Southwest 225 259 5,700  Level FlightAware ADS-B (KWWD)
Tue 11:42:19 PM 39.9321 -75.4045 235° Southwest 229 264 5,700  Level FlightAware ADS-B (KPHL)
Tue 11:42:29 PM 39.9272 -75.4163 249° West 224 258 5,700 -222 Level FlightAware ADS-B (KWWD)
Tue 11:42:46 PM 39.9216 -75.4385 256° West 211 243 5,600 -706 Descending FlightAware ADS-B (KWWD)
Tue 11:43:03 PM 39.9187 -75.4521 255° West 208 239 5,300 -783 Descending FlightAware ADS-B (KPHL)
Tue 11:43:09 PM 39.9157 -75.4666 257° West 206 237 5,300 -571 Level FlightAware ADS-B (KWWD)
Tue 11:43:24 PM 39.9123 -75.4828 254° West 202 232 5,100 -1,034 Descending FlightAware ADS-B (EGBO)
Tue 11:43:38 PM 39.9084 -75.4997 256° West 195 224 4,800 -1,241 Descending FlightAware ADS-B (KWWD)
Tue 11:43:53 PM 39.9046 -75.5163 253° West 197 227 4,500 -1,200 Descending FlightAware ADS-B (EGBO)
Tue 11:44:08 PM 39.9008 -75.5338 255° West 194 223 4,200 -1,200 Descending FlightAware ADS-B (KWWD)
Tue 11:44:18 PM 39.8968 -75.5444 237° Southwest 189 217 4,000 -923 Descending FlightAware ADS-B (KWWD)
Tue 11:44:21 PM 39.8953 -75.5467 225° Southwest 192 221 4,000 -600 Level FlightAware ADS-B (EGBO)
Tue 11:44:28 PM 39.8899 -75.5519 212° Southwest 192 221 3,900 -800 Descending FlightAware ADS-B (KWWD)
Tue 11:44:36 PM 39.8835 -75.5545 190° South 192 221 3,800 -1,091 Descending FlightAware ADS-B (KPHL)
Tue 11:44:39 PM 39.8812 -75.5548 185° South 193 222 3,700 -667 Descending FlightAware ADS-B (KWWD)
Tue 11:44:45 PM 39.8764 -75.5549 178° South 193 222 3,700  Level FlightAware ADS-B (EGBO)
Tue 11:44:56 PM 39.8654 -75.5541 176° South 198 228 3,700  Level FlightAware ADS-B (EGBO)
Tue 11:45:17 PM 39.8463 -75.5521 175° South 197 227 3,700 -188 Level FlightAware ADS-B (EGBO)
Tue 11:45:28 PM 39.8366 -75.5497 162° South 191 220 3,600 -900 Descending FlightAware ADS-B (KWWD)
Tue 11:45:37 PM 39.8443 -75.5518 149° Southeast 199 229 3,400 -1,200 Descending FlightAware ADS-B (KPHL)
Tue 11:45:48 PM 39.8239 -75.5333 113° Southeast 200 230 3,200 -1,143 Descending FlightAware ADS-B (KWWD)
Tue 11:45:58 PM 39.8219 -75.5219 99° East 200 230 3,000 -1,125 Descending FlightAware ADS-B (KWWD)
Tue 11:46:20 PM 39.8198 -75.4967 95° East 195 224 2,600 -1,200 Descending FlightAware ADS-B (EGBO)
Tue 11:46:28 PM 39.8192 -75.4877 94° East 191 220 2,400 -857 Descending FlightAware ADS-B (EGBO)
Tue 11:46:48 PM 39.8220 -75.4657 75° East 175 201 2,200 -1,043 Descending FlightAware ADS-B (KWWD)
Tue 11:46:51 PM 39.8248 -75.4542 74° East 170 196 2,000 -667 Descending FlightAware ADS-B
Tue 11:47:06 PM 39.8261 -75.4484 75° East 168 193 2,000 -214 Level FlightAware ADS-B (EGBO)
Tue 11:47:19 PM 39.8285 -75.4361 79° East 161 185 1,900 -571 Descending FlightAware ADS-B (KWWD)
Tue 11:47:27 PM 39.8301 -75.4281 78° East 157 181 1,800 -632 Descending FlightAware ADS-B (KWWD)
Tue 11:47:38 PM 39.8321 -75.4187 78° East 154 177 1,700 -286 Descending FlightAware ADS-B (KWWD)
Tue 11:47:48 PM 39.8339 -75.4099 78° East 150 173 1,700 -222 Level FlightAware ADS-B (KWWD)
Tue 11:48:05 PM 39.8370 -75.3942 78° East 153 176 1,600 -462 Descending FlightAware ADS-B (KWWD)
Tue 11:48:27 PM 39.8388 -75.3852 75° East 149 171 1,400 -783 Descending FlightAware ADS-B (EGBO)
Tue 11:48:51 PM 39.8456 -75.3513 75° East 112 129 1,000 -667 Descending FlightAware ADS-B
Tue 11:49:21 PM 39.8481 -75.3388 75° East 111 128 800 -553 Descending FlightAware ADS-B (KPHL)
Tue 11:50:07 PM 39.8540 -75.3096 75° East 108 124 300 -652 Descending FlightAware ADS-B (KPHL)
Tue 11:51:09 PM 39.8619 -75.2697 75° East 110 127 -290 Descending FlightAware ADS-B (KPHL)

Login

Don't have an account? Register now (free) for customized features, flight alerts, and more!